createdAt,value
2022-08-09T00:00:21.392Z,3.08
2022-08-09T00:02:51.644Z,5.00
2022-08-09T00:06:19.427Z,5.15
2022-08-09T00:08:11.327Z,5.47
2022-08-09T00:10:42.779Z,4.00
2022-08-09T00:13:16.813Z,4.68
2022-08-09T00:15:59.424Z,4.20
2022-08-09T00:18:31.429Z,4.78
2022-08-09T00:21:04.543Z,4.40
2022-08-09T00:23:56.195Z,4.05
2022-08-09T00:26:29.516Z,4.20
2022-08-09T00:29:00.739Z,4.70
2022-08-09T00:31:58.438Z,3.15
2022-08-09T00:34:19.247Z,2.92
2022-08-09T00:36:48.175Z,2.55
2022-08-09T00:40:09.247Z,3.47
2022-08-09T00:44:15.859Z,3.83
2022-08-09T00:44:55.601Z,4.25
2022-08-09T00:47:25.024Z,3.45
2022-08-09T00:49:54.880Z,4.60
2022-08-09T00:52:29.961Z,3.25
2022-08-09T00:55:00.237Z,3.60
2022-08-09T00:57:34.693Z,3.35
2022-08-09T01:00:21.952Z,3.72
2022-08-09T01:02:52.248Z,4.10
2022-08-09T01:05:51.643Z,3.20
2022-08-09T01:08:14.966Z,3.10
2022-08-09T01:10:47.971Z,2.60
2022-08-09T01:13:22.177Z,3.80
2022-08-09T01:15:51.721Z,4.00
2022-08-09T01:18:30.153Z,3.38
2022-08-09T01:21:06.460Z,4.65
2022-08-09T01:24:03.106Z,5.60
2022-08-09T01:26:55.863Z,4.00
2022-08-09T01:29:41.080Z,5.47
2022-08-09T01:32:31.674Z,2.65
2022-08-09T01:35:28.456Z,4.00
2022-08-09T01:38:09.609Z,3.47
2022-08-09T01:40:53.039Z,3.20
2022-08-09T01:43:41.977Z,4.18
2022-08-09T01:46:24.797Z,3.50
2022-08-09T01:48:56.735Z,2.33
2022-08-09T01:51:26.119Z,3.78
2022-08-09T01:53:57.912Z,4.05
2022-08-09T01:56:26.867Z,4.00
2022-08-09T01:58:56.587Z,4.10
2022-08-09T02:01:57.692Z,2.50
2022-08-09T02:04:14.942Z,4.38
2022-08-09T02:07:01.941Z,5.72
2022-08-09T02:09:41.997Z,3.05
2022-08-09T02:12:13.485Z,2.75
2022-08-09T02:14:51.704Z,3.20
2022-08-09T02:18:01.288Z,2.72
2022-08-09T02:20:09.662Z,3.25
2022-08-09T02:22:40.778Z,5.38
2022-08-09T02:25:18.988Z,2.45
2022-08-09T02:27:58.025Z,4.45
2022-08-09T02:30:29.767Z,3.35
2022-08-09T02:32:59.376Z,3.40
2022-08-09T02:36:01.328Z,4.63
2022-08-09T02:38:21.852Z,4.97
2022-08-09T02:40:57.294Z,3.95
2022-08-09T02:43:25.536Z,2.97
2022-08-09T02:45:58.473Z,3.65
2022-08-09T02:48:30.833Z,6.45
2022-08-09T02:51:02.536Z,3.65
2022-08-09T02:53:34.490Z,2.85
2022-08-09T02:56:02.588Z,3.72
2022-08-09T02:58:36.737Z,3.20
2022-08-09T03:01:10.632Z,2.42
2022-08-09T03:04:17.353Z,5.82
2022-08-09T03:06:29.147Z,2.70
2022-08-09T03:08:57.491Z,3.53
2022-08-09T03:12:06.555Z,3.97
2022-08-09T03:14:14.266Z,2.65
2022-08-09T03:16:48.087Z,3.45
2022-08-09T03:19:52.749Z,4.63
2022-08-09T03:22:12.454Z,3.70
2022-08-09T03:25:05.899Z,3.90
2022-08-09T03:27:45.417Z,2.67
2022-08-09T03:30:14.352Z,4.15
2022-08-09T03:32:59.567Z,3.28
2022-08-09T03:36:11.857Z,2.65
2022-08-09T03:38:29.025Z,3.88
2022-08-09T03:40:58.948Z,3.33
2022-08-09T03:43:31.458Z,4.00
2022-08-09T03:46:05.068Z,8.45
2022-08-09T03:48:51.742Z,3.03
2022-08-09T03:51:55.586Z,3.33
2022-08-09T03:54:11.038Z,7.45
2022-08-09T03:56:41.183Z,3.33
2022-08-09T03:59:17.256Z,2.83
2022-08-09T04:01:55.558Z,5.93
2022-08-09T04:04:25.204Z,5.82
2022-08-09T04:07:00.763Z,4.82
2022-08-09T04:09:41.713Z,2.90
2022-08-09T04:12:44.702Z,5.68
2022-08-09T04:15:17.287Z,2.97
2022-08-09T04:17:58.062Z,4.18
2022-08-09T04:20:27.671Z,3.60
2022-08-09T04:22:57.202Z,2.92
2022-08-09T04:25:27.366Z,3.00
2022-08-09T04:28:00.036Z,5.22
2022-08-09T04:30:32.204Z,3.33
2022-08-09T04:33:01.850Z,4.97
2022-08-09T04:35:32.647Z,2.88
2022-08-09T04:38:03.520Z,7.35
2022-08-09T04:40:46.099Z,5.40
2022-08-09T04:43:15.151Z,2.90
2022-08-09T04:45:53.519Z,4.10
2022-08-09T04:48:23.678Z,3.53
2022-08-09T04:51:02.586Z,3.65
2022-08-09T04:53:31.491Z,4.55
2022-08-09T04:56:00.146Z,6.18
2022-08-09T04:58:29.006Z,5.80
2022-08-09T05:00:58.059Z,3.63
2022-08-09T05:03:41.108Z,5.13
2022-08-09T05:06:21.962Z,3.17
2022-08-09T05:09:00.892Z,6.60
2022-08-09T05:11:30.695Z,2.85
2022-08-09T05:14:00.719Z,7.50
2022-08-09T05:16:58.107Z,2.85
2022-08-09T05:19:26.194Z,7.00
2022-08-09T05:22:01.377Z,3.92
2022-08-09T05:24:29.616Z,3.50
2022-08-09T05:26:57.801Z,3.55
2022-08-09T05:29:31.240Z,4.45
2022-08-09T05:32:01.115Z,3.28
2022-08-09T05:34:30.233Z,4.07
2022-08-09T05:37:04.871Z,3.45
2022-08-09T05:39:35.824Z,3.22
2022-08-09T05:42:04.946Z,3.00
2022-08-09T05:44:34.751Z,3.17
2022-08-09T05:47:05.027Z,3.95
2022-08-09T05:50:34.992Z,4.93
2022-08-09T05:52:24.770Z,4.95
2022-08-09T05:54:53.104Z,4.95
2022-08-09T05:57:50.325Z,3.20
2022-08-09T06:00:13.137Z,4.90
2022-08-09T06:02:42.316Z,4.10
2022-08-09T06:05:14.738Z,5.38
2022-08-09T06:07:49.688Z,5.68
2022-08-09T06:10:39.863Z,5.72
2022-08-09T06:13:12.256Z,4.18
2022-08-09T06:15:47.246Z,2.33
2022-08-09T06:18:24.996Z,9.23
2022-08-09T06:20:54.644Z,5.55
2022-08-09T06:23:55.556Z,4.20
2022-08-09T06:26:20.509Z,3.78
2022-08-09T06:29:01.041Z,4.60
2022-08-09T06:31:39.748Z,3.58
2022-08-09T06:34:22.671Z,7.15
2022-08-09T06:36:57.364Z,5.60
2022-08-09T06:39:38.880Z,7.38
2022-08-09T06:42:19.649Z,5.15
2022-08-09T06:44:54.080Z,6.53
2022-08-09T06:47:23.540Z,6.47
2022-08-09T06:50:14.128Z,5.88
2022-08-09T06:52:46.825Z,2.75
2022-08-09T06:55:17.262Z,8.77
2022-08-09T06:58:02.519Z,4.25
2022-08-09T07:00:53.979Z,3.30
2022-08-09T07:03:26.953Z,4.90
2022-08-09T07:06:04.028Z,4.88
2022-08-09T07:08:33.950Z,4.07
2022-08-09T07:11:04.387Z,6.32
2022-08-09T07:13:45.454Z,8.73
2022-08-09T07:16:44.064Z,4.30
2022-08-09T07:19:15.379Z,12.15
2022-08-09T07:21:50.161Z,4.07
2022-08-09T07:24:32.155Z,5.85
2022-08-09T07:27:11.117Z,3.38
2022-08-09T07:29:56.789Z,30.90
2022-08-09T07:32:33.729Z,31.85
2022-08-09T07:37:48.510Z,41.25
2022-08-09T07:40:20.171Z,69.32
2022-08-09T07:42:56.330Z,54.38
2022-08-09T07:45:39.983Z,50.60
2022-08-09T07:48:25.583Z,32.65
2022-08-09T07:51:09.351Z,39.65
2022-08-09T07:54:06.492Z,31.52
2022-08-09T07:56:34.869Z,18.27
2022-08-09T07:59:14.056Z,17.75
2022-08-09T08:01:53.128Z,17.05
2022-08-09T08:04:31.169Z,15.75
2022-08-09T08:07:27.155Z,18.45
2022-08-09T08:09:53.349Z,13.07
2022-08-09T08:12:27.992Z,19.17
2022-08-09T08:14:59.656Z,7.60
2022-08-09T08:17:52.172Z,8.30
2022-08-09T08:20:16.218Z,9.05
2022-08-09T08:22:48.531Z,8.80
2022-08-09T08:25:17.882Z,11.30
2022-08-09T08:27:49.950Z,8.50
2022-08-09T08:30:19.879Z,16.23
2022-08-09T08:32:52.543Z,17.88
2022-08-09T08:35:22.193Z,13.73
2022-08-09T08:37:59.509Z,23.77
2022-08-09T08:40:30.513Z,20.88
2022-08-09T08:42:59.015Z,28.63
2022-08-09T08:45:37.405Z,22.73
2022-08-09T08:48:06.889Z,25.75
2022-08-09T08:50:38.663Z,25.75
2022-08-09T08:53:11.881Z,19.42
2022-08-09T08:55:44.606Z,18.88
2022-08-09T08:58:12.761Z,22.35
2022-08-09T09:00:42.954Z,19.52
2022-08-09T09:03:23.075Z,18.30
2022-08-09T09:06:04.758Z,16.13
2022-08-09T09:08:37.993Z,13.90
2022-08-09T09:11:13.536Z,15.02
2022-08-09T09:13:55.089Z,14.32
2022-08-09T09:16:30.815Z,11.23
2022-08-09T09:22:07.722Z,15.63
2022-08-09T09:24:38.868Z,10.85
2022-08-09T09:27:09.184Z,13.25
2022-08-09T09:30:14.185Z,12.18
2022-08-09T09:32:40.133Z,12.48
2022-08-09T09:35:09.878Z,8.65
2022-08-09T09:37:40.151Z,10.82
2022-08-09T09:40:10.165Z,9.00
2022-08-09T09:42:46.000Z,7.63
2022-08-09T09:45:26.430Z,10.38
2022-08-09T09:47:59.724Z,7.88
2022-08-09T09:50:50.535Z,10.48
2022-08-09T09:53:21.013Z,7.05
2022-08-09T09:56:04.093Z,6.20
2022-08-09T09:58:45.931Z,9.48
2022-08-09T10:01:31.180Z,7.75
2022-08-09T10:04:15.868Z,5.97
2022-08-09T10:06:47.185Z,6.03
2022-08-09T10:09:22.543Z,6.28
2022-08-09T10:12:11.415Z,5.88
2022-08-09T10:14:48.035Z,7.13
2022-08-09T10:17:51.417Z,6.47
2022-08-09T10:20:28.199Z,6.63
2022-08-09T10:23:13.665Z,4.97
2022-08-09T10:26:07.029Z,10.65
2022-08-09T10:28:35.454Z,4.38
2022-08-09T10:34:08.481Z,5.47
2022-08-09T10:36:42.179Z,4.50
2022-08-09T10:39:15.487Z,5.53
2022-08-09T10:41:47.787Z,5.45
2022-08-09T10:44:18.951Z,4.95
2022-08-09T10:48:26.052Z,7.82
2022-08-09T10:50:16.325Z,6.40
2022-08-09T10:53:10.571Z,6.47
2022-08-09T10:55:58.306Z,6.75
2022-08-09T10:58:34.828Z,5.45
2022-08-09T11:03:02.462Z,4.72
2022-08-09T11:04:19.873Z,4.65
2022-08-09T11:07:27.276Z,5.78
2022-08-09T11:10:17.048Z,5.53
2022-08-09T11:13:07.562Z,6.25
2022-08-09T11:15:50.610Z,5.80
2022-08-09T11:18:43.115Z,5.40
2022-08-09T11:21:55.140Z,4.88
2022-08-09T11:24:26.593Z,6.40
2022-08-09T11:26:59.208Z,4.50
2022-08-09T11:30:06.238Z,4.88
2022-08-09T11:32:43.557Z,4.80
2022-08-09T11:35:16.102Z,3.60
2022-08-09T11:37:44.673Z,7.55
2022-08-09T11:40:19.753Z,4.30
2022-08-09T11:42:50.071Z,3.60
2022-08-09T11:45:26.400Z,7.00
2022-08-09T11:48:26.188Z,4.40
2022-08-09T11:52:49.359Z,4.78
2022-08-09T11:54:14.396Z,7.13
2022-08-09T11:56:49.997Z,3.90
2022-08-09T11:59:30.641Z,5.38
2022-08-09T12:02:34.334Z,5.40
2022-08-09T12:04:58.169Z,3.25
2022-08-09T12:07:41.710Z,6.53
2022-08-09T12:10:32.060Z,3.95
2022-08-09T12:13:00.307Z,5.10
2022-08-09T12:15:48.397Z,3.47
2022-08-09T12:18:30.271Z,5.57
2022-08-09T12:21:00.677Z,4.60
2022-08-09T12:23:56.242Z,5.45
2022-08-09T12:26:19.875Z,3.75
2022-08-09T12:28:59.388Z,5.05
2022-08-09T12:32:02.454Z,4.75
2022-08-09T12:34:34.935Z,3.28
2022-08-09T12:37:21.876Z,4.45
2022-08-09T12:40:01.711Z,3.70
2022-08-09T12:42:30.748Z,5.38
2022-08-09T12:44:59.439Z,4.22
2022-08-09T12:47:37.204Z,3.83
2022-08-09T12:50:19.730Z,3.75
2022-08-09T12:53:02.671Z,4.22
2022-08-09T12:56:12.240Z,3.78
2022-08-09T12:58:28.057Z,4.75
2022-08-09T13:00:57.739Z,3.00
2022-08-09T13:03:59.070Z,5.50
2022-08-09T13:06:34.336Z,4.93
2022-08-09T13:09:09.359Z,4.63
2022-08-09T13:11:39.503Z,3.70
2022-08-09T13:14:42.563Z,3.55
2022-08-09T13:17:01.078Z,4.70
2022-08-09T13:20:07.270Z,4.25
2022-08-09T13:22:35.429Z,4.35
2022-08-09T13:25:07.904Z,4.90
2022-08-09T13:27:48.897Z,2.97
2022-08-09T13:30:48.839Z,3.85
2022-08-09T13:33:17.301Z,5.38
2022-08-09T13:36:41.768Z,4.40
2022-08-09T13:38:54.954Z,3.15
2022-08-09T13:41:59.160Z,5.20
2022-08-09T13:44:17.062Z,14.23
2022-08-09T13:47:26.714Z,4.63
2022-08-09T13:49:39.701Z,3.53
2022-08-09T13:52:24.811Z,3.42
2022-08-09T13:55:00.513Z,3.40
2022-08-09T13:57:35.788Z,4.20
2022-08-09T14:00:07.517Z,5.13
2022-08-09T14:02:42.885Z,6.38
2022-08-09T14:05:59.815Z,5.85
2022-08-09T14:08:17.766Z,2.90
2022-08-09T14:10:52.552Z,3.22
2022-08-09T14:14:15.056Z,3.67
2022-08-09T14:16:14.216Z,3.15
2022-08-09T14:18:45.905Z,4.15
2022-08-09T14:21:18.583Z,4.82
2022-08-09T14:23:55.321Z,9.60
2022-08-09T14:26:31.800Z,7.70
2022-08-09T14:29:02.981Z,5.10
2022-08-09T14:31:36.242Z,4.10
2022-08-09T14:34:31.281Z,63.53
2022-08-09T14:37:06.128Z,44.28
2022-08-09T14:39:46.609Z,21.15
2022-08-09T14:42:30.801Z,38.72
2022-08-09T14:46:55.531Z,23.52
2022-08-09T14:47:58.799Z,40.35
2022-08-09T14:50:29.137Z,32.92
2022-08-09T14:52:57.622Z,34.75
2022-08-09T14:55:32.259Z,34.40
2022-08-09T14:58:03.289Z,37.75
2022-08-09T15:00:32.379Z,27.83
2022-08-09T15:03:03.801Z,33.65
2022-08-09T15:05:32.780Z,31.52
2022-08-09T15:08:01.157Z,21.17
2022-08-09T15:10:31.744Z,26.90
2022-08-09T15:13:01.448Z,29.67
2022-08-09T15:15:34.450Z,22.92
2022-08-09T15:18:08.289Z,19.90
2022-08-09T15:21:57.884Z,21.48
2022-08-09T15:24:03.689Z,19.73
2022-08-09T15:26:30.747Z,19.60
2022-08-09T15:29:04.510Z,16.88
2022-08-09T15:31:40.914Z,17.13
2022-08-09T15:34:18.163Z,16.73
2022-08-09T15:36:59.807Z,17.38
2022-08-09T15:39:43.873Z,13.48
2022-08-09T15:42:19.158Z,13.50
2022-08-09T15:44:47.585Z,12.73
2022-08-09T15:47:23.650Z,15.18
2022-08-09T15:50:03.551Z,13.05
2022-08-09T15:52:33.095Z,14.00
2022-08-09T15:55:01.765Z,11.85
2022-08-09T15:57:35.997Z,12.02
2022-08-09T16:00:14.637Z,13.70
2022-08-09T16:02:48.149Z,9.48
2022-08-09T16:05:22.468Z,10.30
2022-08-09T16:07:51.073Z,11.18
2022-08-09T16:10:55.223Z,10.32
2022-08-09T16:13:18.615Z,9.45
2022-08-09T16:16:11.000Z,9.10
2022-08-09T16:18:37.519Z,7.07
2022-08-09T16:21:17.001Z,12.00
2022-08-09T16:23:54.700Z,6.53
2022-08-09T16:26:35.237Z,6.60
2022-08-09T16:29:10.696Z,7.55
2022-08-09T16:32:17.780Z,9.65
2022-08-09T16:34:29.412Z,7.22
2022-08-09T16:37:17.634Z,11.38
2022-08-09T16:39:54.756Z,6.75
2022-08-09T16:42:34.248Z,8.75
2022-08-09T16:45:04.269Z,9.43
2022-08-09T16:48:43.170Z,14.45
2022-08-09T16:50:28.719Z,9.20
2022-08-09T16:53:01.164Z,8.70
2022-08-09T16:55:44.144Z,7.93
2022-08-09T16:58:18.269Z,10.00
2022-08-09T17:00:48.286Z,7.32
2022-08-09T17:03:22.129Z,7.70
2022-08-09T17:06:08.776Z,7.85
2022-08-09T17:09:00.095Z,7.43
2022-08-09T17:11:37.710Z,7.63
2022-08-09T17:14:26.404Z,11.32
2022-08-09T17:16:59.878Z,8.88
2022-08-09T17:20:06.075Z,7.75
2022-08-09T17:22:23.821Z,8.60
2022-08-09T17:25:10.041Z,10.00
2022-08-09T17:27:39.660Z,7.05
2022-08-09T17:30:19.795Z,5.60
2022-08-09T17:32:49.947Z,8.30
2022-08-09T17:35:18.088Z,5.57
2022-08-09T17:38:12.992Z,5.47
2022-08-09T17:40:35.394Z,8.82
2022-08-09T17:43:32.308Z,6.28
2022-08-09T17:46:05.965Z,7.20
2022-08-09T17:48:39.353Z,6.88
2022-08-09T17:51:10.071Z,5.82
2022-08-09T17:53:52.048Z,7.18
2022-08-09T17:56:22.077Z,6.82
2022-08-09T17:58:59.978Z,10.02
2022-08-09T18:01:58.163Z,5.63
2022-08-09T18:04:19.572Z,6.18
2022-08-09T18:06:55.285Z,4.00
2022-08-09T18:09:25.144Z,6.90
2022-08-09T18:12:14.458Z,5.53
2022-08-09T18:14:54.102Z,8.68
2022-08-09T18:17:27.161Z,8.00
2022-08-09T18:20:54.501Z,6.80
2022-08-09T18:23:05.845Z,6.82
2022-08-09T18:25:50.563Z,5.40
2022-08-09T18:30:35.570Z,5.68
2022-08-09T18:31:10.575Z,5.68
2022-08-09T18:33:40.394Z,7.28
2022-08-09T18:36:14.214Z,8.18
2022-08-09T18:38:57.537Z,9.25
2022-08-09T18:41:29.409Z,5.03
2022-08-09T18:44:03.511Z,7.03
2022-08-09T18:46:46.993Z,5.80
2022-08-09T18:49:19.855Z,8.85
2022-08-09T18:51:55.086Z,8.23
2022-08-09T18:54:28.427Z,9.48
2022-08-09T18:57:05.173Z,9.00
2022-08-09T18:59:37.318Z,7.40
2022-08-09T19:02:12.227Z,7.95
2022-08-09T19:04:43.366Z,7.57
2022-08-09T19:07:18.865Z,6.80
2022-08-09T19:10:14.197Z,7.50
2022-08-09T19:12:37.484Z,7.55
2022-08-09T19:15:08.911Z,8.48
2022-08-09T19:17:56.162Z,9.65
2022-08-09T19:20:25.078Z,9.88
2022-08-09T19:22:55.193Z,9.82
2022-08-09T19:25:41.269Z,7.07
2022-08-09T19:28:13.050Z,6.88
2022-08-09T19:30:44.896Z,7.40
2022-08-09T19:33:19.199Z,11.07
2022-08-09T19:35:57.074Z,8.57
2022-08-09T19:38:27.983Z,9.85
2022-08-09T19:40:57.591Z,6.10
2022-08-09T19:44:02.160Z,6.65
2022-08-09T19:46:16.369Z,6.82
2022-08-09T19:49:00.841Z,6.95
2022-08-09T19:51:32.708Z,8.75
2022-08-09T19:54:08.289Z,7.80
2022-08-09T19:56:42.499Z,9.57
2022-08-09T19:59:40.110Z,7.97
2022-08-09T20:02:14.923Z,10.73
2022-08-09T20:04:47.565Z,7.70
2022-08-09T20:07:22.570Z,8.05
2022-08-09T20:09:52.302Z,8.68
2022-08-09T20:12:29.865Z,11.25
2022-08-09T20:16:31.708Z,9.27
2022-08-09T20:17:54.805Z,8.15
2022-08-09T20:20:24.967Z,8.57
2022-08-09T20:22:56.194Z,8.82
2022-08-09T20:25:26.329Z,10.38
2022-08-09T20:27:55.733Z,9.80
2022-08-09T20:30:24.160Z,9.80
2022-08-09T20:32:53.894Z,6.90
2022-08-09T20:35:22.170Z,8.43
2022-08-09T20:38:20.585Z,13.07
2022-08-09T20:40:41.038Z,10.60
2022-08-09T20:43:18.026Z,10.38
2022-08-09T20:45:59.498Z,13.65
2022-08-09T20:48:31.274Z,25.35
2022-08-09T20:51:01.004Z,17.55
2022-08-09T20:53:36.147Z,8.25
2022-08-09T20:56:20.202Z,10.93
2022-08-09T20:58:50.349Z,15.27
2022-08-09T21:01:35.051Z,14.27
2022-08-09T21:05:56.531Z,11.13
2022-08-09T21:06:56.110Z,10.30
2022-08-09T21:09:32.815Z,8.57
2022-08-09T21:14:48.381Z,7.82
2022-08-09T21:18:22.819Z,16.67
2022-08-09T21:20:22.443Z,13.55
2022-08-09T21:22:54.873Z,7.70
2022-08-09T21:25:44.347Z,13.18
2022-08-09T21:28:33.506Z,11.68
2022-08-09T21:31:16.355Z,11.88
2022-08-09T21:33:50.760Z,10.38
2022-08-09T21:36:23.438Z,9.27
2022-08-09T21:38:57.958Z,11.77
2022-08-09T21:42:05.438Z,11.32
2022-08-09T21:44:32.815Z,11.23
2022-08-09T21:47:04.669Z,7.65
2022-08-09T21:49:39.911Z,10.75
2022-08-09T21:52:15.115Z,10.27
2022-08-09T21:54:50.983Z,12.68
2022-08-09T21:57:38.325Z,11.10
2022-08-09T22:00:25.391Z,13.13
2022-08-09T22:02:58.093Z,10.30
2022-08-09T22:05:35.552Z,7.82
2022-08-09T22:08:06.022Z,9.40
2022-08-09T22:10:34.224Z,10.13
2022-08-09T22:13:07.341Z,13.80
2022-08-09T22:15:42.118Z,11.98
2022-08-09T22:18:12.273Z,10.88
2022-08-09T22:20:40.826Z,8.77
2022-08-09T22:23:10.409Z,11.88
2022-08-09T22:26:05.865Z,10.95
2022-08-09T22:28:32.899Z,7.40
2022-08-09T22:31:02.827Z,7.97
2022-08-09T22:33:42.448Z,8.85
2022-08-09T22:36:19.630Z,9.57
2022-08-09T22:38:48.346Z,7.72
2022-08-09T22:41:16.468Z,10.38
2022-08-09T22:44:03.418Z,9.63
2022-08-09T22:48:15.660Z,7.95
2022-08-09T22:49:23.461Z,6.63
2022-08-09T22:51:57.063Z,5.38
2022-08-09T22:54:27.509Z,8.40
2022-08-09T22:56:58.667Z,7.25
2022-08-09T22:59:55.194Z,7.82
2022-08-09T23:02:20.152Z,8.15
2022-08-09T23:04:53.785Z,6.88
2022-08-09T23:08:27.759Z,6.80
2022-08-09T23:10:29.603Z,7.35
2022-08-09T23:12:57.687Z,7.43
2022-08-09T23:15:25.765Z,7.60
2022-08-09T23:17:55.364Z,6.43
2022-08-09T23:20:23.839Z,6.28
2022-08-09T23:22:51.993Z,8.02
2022-08-09T23:25:20.181Z,7.20
2022-08-09T23:28:09.318Z,6.30
2022-08-09T23:30:36.404Z,7.45
2022-08-09T23:33:05.972Z,7.53
2022-08-09T23:36:04.664Z,8.40
2022-08-09T23:38:22.247Z,6.35
2022-08-09T23:40:51.829Z,6.75
2022-08-09T23:43:20.032Z,6.05
2022-08-09T23:45:48.213Z,11.68
2022-08-09T23:48:19.526Z,10.55
2022-08-09T23:50:47.707Z,9.52
2022-08-09T23:53:15.810Z,5.53
2022-08-09T23:55:46.241Z,4.88
2022-08-09T23:58:25.933Z,5.90
